Terminal Aerodrome Forecast
Issued by NWS

Home | Current Version | Previous Version | Text Only | Print | Product List | Glossary On
Versions: 1 2 3 4 5 6 7 8 9 10 11 12 13 14 15 16 17 18 19 20 21
000
FTUS44 KEWX 092300
TAFSSF
TAF
KSSF 092331Z 1000/1024 14013KT P6SM FEW060 SCT120
     FM101000 17005KT 5SM BR BKN020
     FM101400 18010KT P6SM FEW030
     FM101800 15012G18KT P6SM BKN050 BKN120=

USA.gov is the U.S. government's official web portal to all federal, state and local government web resources and services.